AEZ2601 LICJ-LIRF
Flight info
| Callsign | AEZ2601 |
|---|---|
| Flight time | 0h 47m |
| Altitude | 28000 |
| Route | LURON DCT DORAS DCT BEROL DCT PNZ DCT NEKPI DCT LAT |
| Aircraft | B738/M-SDE2E3FGHIRWXY/LB1 |
Departure
| Time | 2026-05-05 08:53 |
|---|---|
| Airport | Falcone–Borsellino Airport (LICJ) |
Arrival
| Time | 2026-05-05 09:41 |
|---|---|
| Airport | Rome–Fiumicino Leonardo da Vinci International Airport (LIRF) |
| Time | Latitude | Longitude | Altitude | Speed | Heading |
|---|---|---|---|---|---|
| 2026-05-05 08:42 | 38.18531 | 13.10560 | 79 ft | 0 kts | 336° |
| 2026-05-05 08:48 | 38.18530 | 13.10561 | 79 ft | 1 kts | 336° |
| 2026-05-05 08:48 | 38.18508 | 13.10572 | 51 ft | 4 kts | 337° |
| 2026-05-05 08:48 | 38.18488 | 13.10583 | 48 ft | 4 kts | 341° |
| 2026-05-05 08:49 | 38.18465 | 13.10586 | 51 ft | 4 kts | 39° |
| 2026-05-05 08:49 | 38.18454 | 13.10562 | 48 ft | 4 kts | 67° |
| 2026-05-05 08:49 | 38.18450 | 13.10551 | 48 ft | 1 kts | 67° |
| 2026-05-05 08:50 | 38.18463 | 13.10590 | 48 ft | 13 kts | 68° |
| 2026-05-05 08:51 | 38.18504 | 13.10752 | 52 ft | 22 kts | 95° |
| 2026-05-05 08:51 | 38.18456 | 13.10927 | 50 ft | 21 kts | 130° |
| 2026-05-05 08:51 | 38.18456 | 13.11083 | 49 ft | 19 kts | 67° |
| 2026-05-05 08:51 | 38.18511 | 13.11250 | 50 ft | 24 kts | 68° |
| 2026-05-05 08:52 | 38.18582 | 13.11460 | 50 ft | 27 kts | 66° |
| 2026-05-05 08:52 | 38.18611 | 13.11680 | 52 ft | 25 kts | 96° |
| 2026-05-05 08:52 | 38.18563 | 13.11873 | 52 ft | 23 kts | 158° |
| 2026-05-05 08:52 | 38.18436 | 13.11653 | 52 ft | 58 kts | 246° |
| 2026-05-05 08:53 | 38.18192 | 13.10918 | 52 ft | 119 kts | 247° |
| 2026-05-05 08:53 | 38.17809 | 13.09786 | 223 ft | 150 kts | 247° |
| 2026-05-05 08:53 | 38.17422 | 13.08557 | 795 ft | 153 kts | 249° |
| 2026-05-05 08:53 | 38.17024 | 13.07261 | 1423 ft | 158 kts | 247° |
| 2026-05-05 08:54 | 38.16600 | 13.05971 | 2018 ft | 164 kts | 247° |
| 2026-05-05 08:54 | 38.16115 | 13.04544 | 2507 ft | 194 kts | 244° |
| 2026-05-05 08:54 | 38.15639 | 13.02799 | 2759 ft | 227 kts | 266° |
| 2026-05-05 08:54 | 38.16147 | 13.00821 | 3271 ft | 247 kts | 305° |
| 2026-05-05 08:55 | 38.17312 | 12.99100 | 3885 ft | 262 kts | 309° |
| 2026-05-05 08:55 | 38.18477 | 12.97342 | 4873 ft | 264 kts | 307° |
| 2026-05-05 08:55 | 38.19621 | 12.95466 | 5896 ft | 266 kts | 305° |
| 2026-05-05 08:55 | 38.20710 | 12.93554 | 6885 ft | 268 kts | 303° |
| 2026-05-05 08:56 | 38.21763 | 12.91618 | 7789 ft | 271 kts | 302° |
| 2026-05-05 08:56 | 38.22819 | 12.89612 | 8712 ft | 275 kts | 301° |
| 2026-05-05 08:56 | 38.23872 | 12.87569 | 9634 ft | 278 kts | 301° |
| 2026-05-05 08:56 | 38.24932 | 12.85489 | 10480 ft | 284 kts | 300° |
| 2026-05-05 08:57 | 38.26045 | 12.83290 | 10786 ft | 309 kts | 300° |
| 2026-05-05 08:57 | 38.27258 | 12.80889 | 10996 ft | 335 kts | 300° |
| 2026-05-05 08:57 | 38.28776 | 12.78497 | 11180 ft | 363 kts | 317° |
| 2026-05-05 08:57 | 38.30980 | 12.76810 | 11729 ft | 378 kts | 333° |
| 2026-05-05 08:58 | 38.33407 | 12.75474 | 12411 ft | 383 kts | 334° |
| 2026-05-05 08:58 | 38.36004 | 12.74585 | 13166 ft | 394 kts | 353° |
| 2026-05-05 08:58 | 38.38747 | 12.74975 | 13946 ft | 404 kts | 14° |
| 2026-05-05 08:58 | 38.41311 | 12.76505 | 14613 ft | 411 kts | 29° |
| 2026-05-05 08:59 | 38.43756 | 12.78425 | 15326 ft | 413 kts | 31° |
| 2026-05-05 08:59 | 38.46199 | 12.80384 | 15996 ft | 417 kts | 31° |
| 2026-05-05 08:59 | 38.48665 | 12.82361 | 16597 ft | 421 kts | 30° |
| 2026-05-05 08:59 | 38.51167 | 12.84351 | 17189 ft | 425 kts | 30° |
| 2026-05-05 09:00 | 38.53694 | 12.86346 | 17789 ft | 429 kts | 30° |
| 2026-05-05 09:00 | 38.56248 | 12.88351 | 18374 ft | 433 kts | 30° |
| 2026-05-05 09:00 | 38.58827 | 12.90368 | 18896 ft | 436 kts | 30° |
| 2026-05-05 09:00 | 38.61425 | 12.92397 | 19435 ft | 439 kts | 30° |
| 2026-05-05 09:01 | 38.64039 | 12.94440 | 19952 ft | 442 kts | 30° |
| 2026-05-05 09:01 | 38.66681 | 12.96506 | 20403 ft | 447 kts | 30° |
| 2026-05-05 09:01 | 38.69345 | 12.98592 | 20868 ft | 451 kts | 30° |
| 2026-05-05 09:01 | 38.72028 | 13.00696 | 21374 ft | 454 kts | 30° |
| 2026-05-05 09:02 | 38.74726 | 13.02814 | 21850 ft | 457 kts | 30° |
| 2026-05-05 09:02 | 38.77447 | 13.04950 | 22290 ft | 460 kts | 30° |
| 2026-05-05 09:02 | 38.80190 | 13.07106 | 22720 ft | 464 kts | 30° |
| 2026-05-05 09:02 | 38.82943 | 13.09273 | 23131 ft | 467 kts | 29° |
| 2026-05-05 09:03 | 38.85892 | 13.11015 | 23417 ft | 469 kts | 13° |
| 2026-05-05 09:03 | 38.89072 | 13.11545 | 23668 ft | 468 kts | 355° |
| 2026-05-05 09:03 | 38.92356 | 13.11318 | 24110 ft | 466 kts | 353° |
| 2026-05-05 09:03 | 38.95532 | 13.11033 | 24500 ft | 464 kts | 352° |
| 2026-05-05 09:04 | 38.98760 | 13.10735 | 24795 ft | 466 kts | 352° |
| 2026-05-05 09:04 | 39.01997 | 13.10448 | 25091 ft | 467 kts | 352° |
| 2026-05-05 09:04 | 39.05250 | 13.10176 | 25389 ft | 469 kts | 353° |
| 2026-05-05 09:04 | 39.08508 | 13.09918 | 25722 ft | 469 kts | 353° |
| 2026-05-05 09:05 | 39.11769 | 13.09668 | 26025 ft | 470 kts | 353° |
| 2026-05-05 09:05 | 39.15037 | 13.09421 | 26298 ft | 471 kts | 353° |
| 2026-05-05 09:05 | 39.18320 | 13.09175 | 26555 ft | 473 kts | 353° |
| 2026-05-05 09:05 | 39.21608 | 13.08928 | 26805 ft | 474 kts | 352° |
| 2026-05-05 09:06 | 39.24909 | 13.08679 | 27053 ft | 476 kts | 352° |
| 2026-05-05 09:06 | 39.28214 | 13.08428 | 27302 ft | 477 kts | 352° |
| 2026-05-05 09:06 | 39.31530 | 13.08177 | 27548 ft | 479 kts | 352° |
| 2026-05-05 09:06 | 39.34860 | 13.07923 | 27802 ft | 479 kts | 352° |
| 2026-05-05 09:07 | 39.38186 | 13.07670 | 28165 ft | 478 kts | 352° |
| 2026-05-05 09:07 | 39.41494 | 13.07419 | 28572 ft | 475 kts | 352° |
| 2026-05-05 09:07 | 39.44785 | 13.07168 | 28964 ft | 473 kts | 352° |
| 2026-05-05 09:07 | 39.48071 | 13.06916 | 29310 ft | 473 kts | 351° |
| 2026-05-05 09:08 | 39.51346 | 13.06664 | 29652 ft | 472 kts | 351° |
| 2026-05-05 09:08 | 39.54617 | 13.06409 | 30068 ft | 470 kts | 351° |
| 2026-05-05 09:08 | 39.57894 | 13.06158 | 30101 ft | 473 kts | 351° |
| 2026-05-05 09:09 | 39.64465 | 13.05660 | 30096 ft | 470 kts | 351° |
| 2026-05-05 09:09 | 39.70974 | 13.05166 | 30117 ft | 468 kts | 351° |
| 2026-05-05 09:10 | 39.77480 | 13.04663 | 30123 ft | 469 kts | 350° |
| 2026-05-05 09:10 | 39.83995 | 13.04157 | 30110 ft | 469 kts | 350° |
| 2026-05-05 09:11 | 39.90507 | 13.03651 | 30106 ft | 469 kts | 350° |
| 2026-05-05 09:11 | 39.96981 | 13.03148 | 30106 ft | 469 kts | 350° |
| 2026-05-05 09:12 | 40.03494 | 13.02640 | 30113 ft | 469 kts | 350° |
| 2026-05-05 09:12 | 40.10002 | 13.02130 | 30112 ft | 469 kts | 350° |
| 2026-05-05 09:13 | 40.16512 | 13.01618 | 30108 ft | 469 kts | 350° |
| 2026-05-05 09:13 | 40.23033 | 13.01108 | 30107 ft | 469 kts | 350° |
| 2026-05-05 09:14 | 40.29552 | 13.00603 | 30107 ft | 469 kts | 350° |
| 2026-05-05 09:14 | 40.36069 | 13.00094 | 30106 ft | 470 kts | 350° |
| 2026-05-05 09:15 | 40.42594 | 12.99580 | 30114 ft | 470 kts | 350° |
| 2026-05-05 09:15 | 40.49135 | 12.99062 | 30109 ft | 471 kts | 350° |
| 2026-05-05 09:16 | 40.55687 | 12.98542 | 30105 ft | 472 kts | 350° |
| 2026-05-05 09:16 | 40.62248 | 12.98022 | 30118 ft | 473 kts | 350° |
| 2026-05-05 09:17 | 40.68824 | 12.97498 | 30104 ft | 474 kts | 350° |
| 2026-05-05 09:17 | 40.75415 | 12.96972 | 30104 ft | 475 kts | 350° |
| 2026-05-05 09:18 | 40.81970 | 12.96445 | 30104 ft | 475 kts | 350° |
| 2026-05-05 09:18 | 40.85282 | 12.96178 | 29782 ft | 481 kts | 350° |
| 2026-05-05 09:18 | 40.88648 | 12.95911 | 28897 ft | 484 kts | 352° |
| 2026-05-05 09:18 | 40.92030 | 12.95977 | 27972 ft | 490 kts | 360° |
| 2026-05-05 09:19 | 40.95403 | 12.96738 | 27080 ft | 494 kts | 7° |
| 2026-05-05 09:19 | 40.98740 | 12.97775 | 26081 ft | 495 kts | 8° |
| 2026-05-05 09:19 | 41.02096 | 12.98855 | 25180 ft | 494 kts | 9° |
| 2026-05-05 09:19 | 41.05412 | 12.99911 | 24478 ft | 487 kts | 8° |
| 2026-05-05 09:20 | 41.08695 | 13.00930 | 23710 ft | 483 kts | 8° |
| 2026-05-05 09:20 | 41.11954 | 13.01918 | 22864 ft | 477 kts | 8° |
| 2026-05-05 09:20 | 41.15174 | 13.02881 | 22079 ft | 471 kts | 8° |
| 2026-05-05 09:20 | 41.18356 | 13.03827 | 21340 ft | 465 kts | 9° |
| 2026-05-05 09:21 | 41.21494 | 13.04762 | 20619 ft | 459 kts | 9° |
| 2026-05-05 09:21 | 41.24597 | 13.05688 | 19929 ft | 454 kts | 9° |
| 2026-05-05 09:21 | 41.27665 | 13.06609 | 19231 ft | 450 kts | 9° |
| 2026-05-05 09:21 | 41.30725 | 13.07323 | 18487 ft | 443 kts | 0° |
| 2026-05-05 09:22 | 41.33747 | 13.07030 | 17693 ft | 432 kts | 345° |
| 2026-05-05 09:22 | 41.36582 | 13.05807 | 16797 ft | 425 kts | 331° |
| 2026-05-05 09:22 | 41.39095 | 13.03891 | 16478 ft | 407 kts | 325° |
| 2026-05-05 09:22 | 41.41460 | 13.01951 | 16260 ft | 391 kts | 325° |
| 2026-05-05 09:23 | 41.43740 | 13.00099 | 16083 ft | 377 kts | 325° |
| 2026-05-05 09:23 | 41.45944 | 12.98325 | 15934 ft | 364 kts | 325° |
| 2026-05-05 09:23 | 41.48085 | 12.96614 | 15797 ft | 352 kts | 324° |
| 2026-05-05 09:23 | 41.50128 | 12.94988 | 15667 ft | 341 kts | 324° |
| 2026-05-05 09:24 | 41.52137 | 12.93393 | 15539 ft | 331 kts | 324° |
| 2026-05-05 09:24 | 41.54108 | 12.91808 | 15387 ft | 321 kts | 322° |
| 2026-05-05 09:24 | 41.55808 | 12.89984 | 15099 ft | 315 kts | 313° |
| 2026-05-05 09:24 | 41.57388 | 12.87962 | 14767 ft | 315 kts | 311° |
| 2026-05-05 09:25 | 41.58951 | 12.85915 | 14434 ft | 315 kts | 311° |
| 2026-05-05 09:25 | 41.60524 | 12.83876 | 14090 ft | 315 kts | 312° |
| 2026-05-05 09:25 | 41.62106 | 12.81862 | 13713 ft | 313 kts | 313° |
| 2026-05-05 09:25 | 41.63674 | 12.79891 | 13547 ft | 305 kts | 313° |
| 2026-05-05 09:26 | 41.65203 | 12.77978 | 13397 ft | 296 kts | 313° |
| 2026-05-05 09:26 | 41.66687 | 12.76125 | 13268 ft | 288 kts | 312° |
| 2026-05-05 09:26 | 41.68141 | 12.74303 | 12944 ft | 284 kts | 312° |
| 2026-05-05 09:26 | 41.69560 | 12.72525 | 12662 ft | 277 kts | 312° |
| 2026-05-05 09:27 | 41.70955 | 12.70776 | 12397 ft | 273 kts | 312° |
| 2026-05-05 09:27 | 41.72340 | 12.69040 | 12141 ft | 272 kts | 312° |
| 2026-05-05 09:27 | 41.73721 | 12.67305 | 11832 ft | 273 kts | 312° |
| 2026-05-05 09:27 | 41.75100 | 12.65567 | 11553 ft | 272 kts | 312° |
| 2026-05-05 09:28 | 41.76477 | 12.63833 | 11280 ft | 271 kts | 312° |
| 2026-05-05 09:28 | 41.77853 | 12.62102 | 10992 ft | 272 kts | 313° |
| 2026-05-05 09:28 | 41.79228 | 12.60372 | 10702 ft | 272 kts | 313° |
| 2026-05-05 09:28 | 41.80639 | 12.58683 | 10427 ft | 274 kts | 320° |
| 2026-05-05 09:29 | 41.82300 | 12.57407 | 10149 ft | 277 kts | 329° |
| 2026-05-05 09:29 | 41.83454 | 12.56673 | 9949 ft | 277 kts | 331° |
| 2026-05-05 09:29 | 41.85209 | 12.55600 | 9634 ft | 278 kts | 331° |
| 2026-05-05 09:29 | 41.86965 | 12.54524 | 9329 ft | 277 kts | 331° |
| 2026-05-05 09:30 | 41.88712 | 12.53438 | 9031 ft | 276 kts | 330° |
| 2026-05-05 09:30 | 41.90445 | 12.52346 | 8748 ft | 274 kts | 330° |
| 2026-05-05 09:30 | 41.92163 | 12.51253 | 8479 ft | 273 kts | 330° |
| 2026-05-05 09:30 | 41.93882 | 12.50152 | 8197 ft | 274 kts | 330° |
| 2026-05-05 09:31 | 41.95601 | 12.49046 | 7921 ft | 274 kts | 330° |
| 2026-05-05 09:31 | 41.97315 | 12.47941 | 7591 ft | 271 kts | 330° |
| 2026-05-05 09:31 | 41.98988 | 12.46859 | 7331 ft | 264 kts | 330° |
| 2026-05-05 09:31 | 42.00644 | 12.45785 | 7081 ft | 264 kts | 330° |
| 2026-05-05 09:32 | 42.02285 | 12.44721 | 6802 ft | 260 kts | 330° |
| 2026-05-05 09:32 | 42.03901 | 12.43673 | 6524 ft | 257 kts | 330° |
| 2026-05-05 09:32 | 42.05511 | 12.42628 | 6225 ft | 256 kts | 330° |
| 2026-05-05 09:32 | 42.07112 | 12.41589 | 5950 ft | 254 kts | 329° |
| 2026-05-05 09:33 | 42.08693 | 12.40561 | 5704 ft | 252 kts | 328° |
| 2026-05-05 09:33 | 42.10012 | 12.39118 | 5431 ft | 240 kts | 298° |
| 2026-05-05 09:33 | 42.10552 | 12.37084 | 5209 ft | 227 kts | 270° |
| 2026-05-05 09:33 | 42.10410 | 12.35018 | 4998 ft | 219 kts | 251° |
| 2026-05-05 09:34 | 42.09724 | 12.33230 | 4866 ft | 213 kts | 232° |
| 2026-05-05 09:34 | 42.08810 | 12.31640 | 4706 ft | 214 kts | 231° |
| 2026-05-05 09:34 | 42.07901 | 12.30074 | 4620 ft | 210 kts | 231° |
| 2026-05-05 09:34 | 42.07006 | 12.28531 | 4533 ft | 210 kts | 231° |
| 2026-05-05 09:35 | 42.06103 | 12.26969 | 4456 ft | 213 kts | 231° |
| 2026-05-05 09:35 | 42.04295 | 12.23765 | 4013 ft | 210 kts | 231° |
| 2026-05-05 09:35 | 42.03427 | 12.22239 | 3780 ft | 202 kts | 230° |
| 2026-05-05 09:36 | 42.02558 | 12.20778 | 3542 ft | 198 kts | 226° |
| 2026-05-05 09:36 | 42.01437 | 12.19829 | 3397 ft | 193 kts | 189° |
| 2026-05-05 09:36 | 42.00088 | 12.20018 | 3212 ft | 200 kts | 172° |
| 2026-05-05 09:36 | 41.98707 | 12.20362 | 2939 ft | 202 kts | 170° |
| 2026-05-05 09:37 | 41.97370 | 12.20821 | 2675 ft | 195 kts | 166° |
| 2026-05-05 09:37 | 41.96091 | 12.21339 | 2407 ft | 189 kts | 164° |
| 2026-05-05 09:37 | 41.94865 | 12.21855 | 2148 ft | 180 kts | 165° |
| 2026-05-05 09:37 | 41.93697 | 12.22345 | 1928 ft | 172 kts | 165° |
| 2026-05-05 09:38 | 41.92583 | 12.22812 | 1711 ft | 164 kts | 164° |
| 2026-05-05 09:38 | 41.91548 | 12.23244 | 1540 ft | 144 kts | 164° |
| 2026-05-05 09:38 | 41.90628 | 12.23628 | 1314 ft | 132 kts | 164° |
| 2026-05-05 09:38 | 41.89776 | 12.23987 | 1124 ft | 126 kts | 163° |
| 2026-05-05 09:39 | 41.88942 | 12.24330 | 909 ft | 132 kts | 162° |
| 2026-05-05 09:39 | 41.88058 | 12.24700 | 788 ft | 132 kts | 163° |
| 2026-05-05 09:39 | 41.87203 | 12.25062 | 623 ft | 128 kts | 162° |
| 2026-05-05 09:39 | 41.86350 | 12.25408 | 396 ft | 129 kts | 162° |
| 2026-05-05 09:40 | 41.85470 | 12.25771 | 250 ft | 138 kts | 159° |
| 2026-05-05 09:40 | 41.84547 | 12.26158 | 69 ft | 139 kts | 158° |
| 2026-05-05 09:40 | 41.83651 | 12.26543 | 21 ft | 127 kts | 160° |
| 2026-05-05 09:40 | 41.82945 | 12.26843 | 11 ft | 77 kts | 162° |
| 2026-05-05 09:41 | 41.82517 | 12.27021 | 10 ft | 60 kts | 163° |
| 2026-05-05 09:41 | 41.82146 | 12.27146 | 9 ft | 49 kts | 176° |
| 2026-05-05 09:41 | 41.81858 | 12.27080 | 10 ft | 40 kts | 193° |
| 2026-05-05 09:41 | 41.81593 | 12.27088 | 13 ft | 37 kts | 164° |
| 2026-05-05 09:42 | 41.81353 | 12.27186 | 11 ft | 37 kts | 163° |
| 2026-05-05 09:42 | 41.81100 | 12.27294 | 12 ft | 38 kts | 161° |
| 2026-05-05 09:42 | 41.80852 | 12.27340 | 11 ft | 35 kts | 189° |
| 2026-05-05 09:42 | 41.80651 | 12.27206 | 11 ft | 32 kts | 245° |
| 2026-05-05 09:43 | 41.80576 | 12.26931 | 12 ft | 31 kts | 249° |
| 2026-05-05 09:43 | 41.80504 | 12.26672 | 14 ft | 29 kts | 249° |
| 2026-05-05 09:43 | 41.80435 | 12.26432 | 14 ft | 25 kts | 249° |
| 2026-05-05 09:43 | 41.80304 | 12.26392 | 14 ft | 22 kts | 160° |
| 2026-05-05 09:44 | 41.80163 | 12.26374 | 13 ft | 21 kts | 206° |
| 2026-05-05 09:44 | 41.80026 | 12.26339 | 13 ft | 20 kts | 160° |
| 2026-05-05 09:44 | 41.80004 | 12.26401 | 13 ft | 3 kts | 71° |
| 2026-05-05 09:44 | 41.80011 | 12.26425 | 13 ft | 0 kts | 69° |